AFA87 RCKH-RCFN
Flight info
| Callsign | AFA87 |
|---|---|
| Flight time | 1h 7m |
| Altitude | 8000 |
| Route | HCN B591 ORRIS |
| Aircraft | DA42/L-SBDGRY/S |
Departure
| Time | 2026-05-08 13:11 |
|---|---|
| Airport | Kaohsiung International Airport (RCKH) |
Arrival
| Time | 2026-05-08 14:18 |
|---|---|
| Airport | Taitung Airport (RCFN) |
| Time | Latitude | Longitude | Altitude | Speed | Heading |
|---|---|---|---|---|---|
| 2026-05-08 13:11 | 22.51956 | 120.31838 | 5013 ft | 111 kts | 140° |
| 2026-05-08 13:11 | 22.51354 | 120.32376 | 5263 ft | 113 kts | 141° |
| 2026-05-08 13:11 | 22.50739 | 120.32924 | 5510 ft | 115 kts | 141° |
| 2026-05-08 13:12 | 22.50125 | 120.33471 | 5783 ft | 114 kts | 141° |
| 2026-05-08 13:12 | 22.49508 | 120.34022 | 6035 ft | 116 kts | 141° |
| 2026-05-08 13:12 | 22.48886 | 120.34577 | 6315 ft | 116 kts | 142° |
| 2026-05-08 13:12 | 22.48262 | 120.35134 | 6562 ft | 117 kts | 142° |
| 2026-05-08 13:13 | 22.47628 | 120.35699 | 6802 ft | 119 kts | 143° |
| 2026-05-08 13:13 | 22.46984 | 120.36273 | 7055 ft | 121 kts | 143° |
| 2026-05-08 13:13 | 22.46334 | 120.36853 | 7311 ft | 122 kts | 142° |
| 2026-05-08 13:13 | 22.45677 | 120.37439 | 7559 ft | 123 kts | 142° |
| 2026-05-08 13:14 | 22.45011 | 120.38032 | 7796 ft | 125 kts | 144° |
| 2026-05-08 13:14 | 22.44331 | 120.38637 | 7988 ft | 133 kts | 144° |
| 2026-05-08 13:14 | 22.43568 | 120.39312 | 7997 ft | 148 kts | 143° |
| 2026-05-08 13:14 | 22.42744 | 120.40043 | 8010 ft | 157 kts | 143° |
| 2026-05-08 13:15 | 22.41885 | 120.40811 | 8021 ft | 163 kts | 142° |
| 2026-05-08 13:15 | 22.41003 | 120.41605 | 8018 ft | 167 kts | 142° |
| 2026-05-08 13:15 | 22.40102 | 120.42408 | 8015 ft | 169 kts | 142° |
| 2026-05-08 13:15 | 22.39193 | 120.43215 | 8016 ft | 170 kts | 143° |
| 2026-05-08 13:16 | 22.38277 | 120.44029 | 8018 ft | 170 kts | 142° |
| 2026-05-08 13:16 | 22.37362 | 120.44845 | 8017 ft | 171 kts | 143° |
| 2026-05-08 13:16 | 22.36442 | 120.45664 | 8020 ft | 171 kts | 143° |
| 2026-05-08 13:16 | 22.35523 | 120.46480 | 8026 ft | 171 kts | 143° |
| 2026-05-08 13:17 | 22.34603 | 120.47297 | 8023 ft | 171 kts | 143° |
| 2026-05-08 13:17 | 22.33682 | 120.48119 | 8026 ft | 172 kts | 142° |
| 2026-05-08 13:17 | 22.32760 | 120.48941 | 8021 ft | 172 kts | 142° |
| 2026-05-08 13:17 | 22.31836 | 120.49761 | 8023 ft | 172 kts | 142° |
| 2026-05-08 13:18 | 22.30968 | 120.50657 | 8018 ft | 175 kts | 124° |
| 2026-05-08 13:18 | 22.30631 | 120.51919 | 8026 ft | 177 kts | 98° |
| 2026-05-08 13:18 | 22.30511 | 120.53223 | 8026 ft | 177 kts | 96° |
| 2026-05-08 13:18 | 22.30403 | 120.54544 | 8026 ft | 176 kts | 96° |
| 2026-05-08 13:19 | 22.30296 | 120.55859 | 8025 ft | 176 kts | 95° |
| 2026-05-08 13:19 | 22.30191 | 120.57173 | 8027 ft | 176 kts | 96° |
| 2026-05-08 13:19 | 22.30091 | 120.58489 | 8026 ft | 175 kts | 95° |
| 2026-05-08 13:19 | 22.29988 | 120.59802 | 8026 ft | 176 kts | 95° |
| 2026-05-08 13:20 | 22.29881 | 120.61115 | 8026 ft | 175 kts | 96° |
| 2026-05-08 13:20 | 22.29776 | 120.62429 | 8028 ft | 176 kts | 95° |
| 2026-05-08 13:20 | 22.29673 | 120.63746 | 8034 ft | 176 kts | 96° |
| 2026-05-08 13:20 | 22.29570 | 120.65064 | 8037 ft | 176 kts | 96° |
| 2026-05-08 13:21 | 22.29466 | 120.66385 | 8029 ft | 177 kts | 96° |
| 2026-05-08 13:21 | 22.29361 | 120.67701 | 8031 ft | 176 kts | 96° |
| 2026-05-08 13:21 | 22.29259 | 120.69022 | 8030 ft | 176 kts | 96° |
| 2026-05-08 13:21 | 22.29158 | 120.70340 | 8031 ft | 177 kts | 96° |
| 2026-05-08 13:22 | 22.29055 | 120.71668 | 8031 ft | 177 kts | 96° |
| 2026-05-08 13:22 | 22.28952 | 120.72990 | 8034 ft | 177 kts | 95° |
| 2026-05-08 13:22 | 22.28859 | 120.74187 | 8038 ft | 145 kts | 95° |
| 2026-05-08 13:22 | 22.28783 | 120.75167 | 8037 ft | 118 kts | 95° |
| 2026-05-08 13:23 | 22.28722 | 120.75954 | 8016 ft | 97 kts | 96° |
| 2026-05-08 13:23 | 22.28665 | 120.76822 | 8061 ft | 124 kts | 94° |
| 2026-05-08 13:23 | 22.28587 | 120.77837 | 8049 ft | 144 kts | 96° |
| 2026-05-08 13:23 | 22.28497 | 120.78919 | 8035 ft | 141 kts | 96° |
| 2026-05-08 13:24 | 22.28420 | 120.79915 | 8043 ft | 121 kts | 95° |
| 2026-05-08 13:24 | 22.28362 | 120.80716 | 8049 ft | 95 kts | 95° |
| 2026-05-08 13:24 | 22.28325 | 120.81376 | 8024 ft | 83 kts | 94° |
| 2026-05-08 13:24 | 22.28281 | 120.82159 | 7996 ft | 116 kts | 95° |
| 2026-05-08 13:25 | 22.28214 | 120.83115 | 8040 ft | 140 kts | 97° |
| 2026-05-08 13:25 | 22.28012 | 120.84153 | 8047 ft | 142 kts | 143° |
| 2026-05-08 13:25 | 22.27355 | 120.83777 | 8039 ft | 138 kts | 282° |
| 2026-05-08 13:25 | 22.28110 | 120.83618 | 8037 ft | 145 kts | 59° |
| 2026-05-08 13:26 | 22.28483 | 120.84553 | 8036 ft | 145 kts | 9° |
| 2026-05-08 13:26 | 22.28863 | 120.83882 | 8050 ft | 137 kts | 226° |
| 2026-05-08 13:26 | 22.28186 | 120.84271 | 8065 ft | 145 kts | 104° |
| 2026-05-08 13:26 | 22.28078 | 120.85385 | 8040 ft | 153 kts | 95° |
| 2026-05-08 13:27 | 22.28005 | 120.86559 | 8043 ft | 162 kts | 94° |
| 2026-05-08 13:27 | 22.27962 | 120.87792 | 8075 ft | 165 kts | 91° |
| 2026-05-08 13:27 | 22.27968 | 120.89051 | 8031 ft | 170 kts | 77° |
| 2026-05-08 13:27 | 22.28559 | 120.90127 | 8047 ft | 171 kts | 48° |
| 2026-05-08 13:28 | 22.29383 | 120.91100 | 7944 ft | 178 kts | 46° |
| 2026-05-08 13:28 | 22.30220 | 120.92064 | 7733 ft | 177 kts | 46° |
| 2026-05-08 13:28 | 22.31066 | 120.93026 | 7514 ft | 176 kts | 46° |
| 2026-05-08 13:28 | 22.31910 | 120.93972 | 7307 ft | 174 kts | 46° |
| 2026-05-08 13:29 | 22.32753 | 120.94908 | 7097 ft | 173 kts | 46° |
| 2026-05-08 13:29 | 22.33606 | 120.95846 | 6887 ft | 172 kts | 46° |
| 2026-05-08 13:29 | 22.34430 | 120.96748 | 6682 ft | 169 kts | 45° |
| 2026-05-08 13:29 | 22.35251 | 120.97643 | 6475 ft | 167 kts | 46° |
| 2026-05-08 13:30 | 22.36063 | 120.98523 | 6253 ft | 164 kts | 45° |
| 2026-05-08 13:30 | 22.36861 | 120.99392 | 6050 ft | 159 kts | 45° |
| 2026-05-08 13:30 | 22.37584 | 121.00205 | 5946 ft | 146 kts | 45° |
| 2026-05-08 13:30 | 22.38285 | 121.00989 | 5766 ft | 144 kts | 41° |
| 2026-05-08 13:31 | 22.39212 | 121.01306 | 5601 ft | 143 kts | 354° |
| 2026-05-08 13:31 | 22.40121 | 121.00883 | 5437 ft | 143 kts | 334° |
| 2026-05-08 13:31 | 22.41016 | 121.00425 | 5272 ft | 142 kts | 337° |
| 2026-05-08 13:31 | 22.41912 | 120.99981 | 5103 ft | 142 kts | 336° |
| 2026-05-08 13:32 | 22.42806 | 120.99536 | 4937 ft | 141 kts | 336° |
| 2026-05-08 13:32 | 22.43699 | 120.99088 | 4769 ft | 142 kts | 336° |
| 2026-05-08 13:32 | 22.44597 | 120.98641 | 4599 ft | 142 kts | 337° |
| 2026-05-08 13:32 | 22.45487 | 120.98184 | 4422 ft | 140 kts | 338° |
| 2026-05-08 13:33 | 22.46340 | 120.97721 | 4252 ft | 135 kts | 336° |
| 2026-05-08 13:33 | 22.47156 | 120.97243 | 4077 ft | 132 kts | 335° |
| 2026-05-08 13:33 | 22.47979 | 120.97015 | 4016 ft | 115 kts | 5° |
| 2026-05-08 13:33 | 22.48789 | 120.97076 | 3827 ft | 121 kts | 7° |
| 2026-05-08 13:34 | 22.49654 | 120.97148 | 3643 ft | 128 kts | 7° |
| 2026-05-08 13:34 | 22.50511 | 120.97410 | 3537 ft | 126 kts | 21° |
| 2026-05-08 13:34 | 22.51312 | 120.97750 | 3538 ft | 123 kts | 24° |
| 2026-05-08 13:34 | 22.52112 | 120.98115 | 3538 ft | 126 kts | 25° |
| 2026-05-08 13:35 | 22.52927 | 120.98494 | 3540 ft | 128 kts | 26° |
| 2026-05-08 13:35 | 22.53747 | 120.98891 | 3537 ft | 130 kts | 25° |
| 2026-05-08 13:35 | 22.54573 | 120.99291 | 3534 ft | 130 kts | 25° |
| 2026-05-08 13:35 | 22.55402 | 120.99694 | 3535 ft | 130 kts | 25° |
| 2026-05-08 13:36 | 22.56218 | 121.00090 | 3537 ft | 124 kts | 26° |
| 2026-05-08 13:36 | 22.56721 | 121.00336 | 3531 ft | 117 kts | 26° |
| 2026-05-08 13:36 | 22.57681 | 121.00803 | 3517 ft | 110 kts | 25° |
| 2026-05-08 13:36 | 22.58127 | 121.01020 | 3519 ft | 101 kts | 26° |
| 2026-05-08 13:37 | 22.58959 | 121.01418 | 3525 ft | 96 kts | 26° |
| 2026-05-08 13:37 | 22.59368 | 121.01620 | 3466 ft | 100 kts | 26° |
| 2026-05-08 13:37 | 22.60019 | 121.01938 | 3313 ft | 104 kts | 26° |
| 2026-05-08 13:37 | 22.60913 | 121.02374 | 3092 ft | 106 kts | 25° |
| 2026-05-08 13:38 | 22.61575 | 121.02695 | 2971 ft | 103 kts | 25° |
| 2026-05-08 13:38 | 22.62213 | 121.03004 | 2844 ft | 101 kts | 26° |
| 2026-05-08 13:38 | 22.62648 | 121.03215 | 2769 ft | 101 kts | 26° |
| 2026-05-08 13:38 | 22.63287 | 121.03525 | 2648 ft | 100 kts | 27° |
| 2026-05-08 13:39 | 22.64159 | 121.03948 | 2472 ft | 108 kts | 25° |
| 2026-05-08 13:39 | 22.64852 | 121.04284 | 2350 ft | 110 kts | 26° |
| 2026-05-08 13:39 | 22.65329 | 121.04517 | 2257 ft | 112 kts | 26° |
| 2026-05-08 13:39 | 22.66040 | 121.04863 | 2139 ft | 112 kts | 26° |
| 2026-05-08 13:40 | 22.66756 | 121.05212 | 2000 ft | 115 kts | 26° |
| 2026-05-08 13:40 | 22.67456 | 121.05550 | 1790 ft | 105 kts | 26° |
| 2026-05-08 13:40 | 22.68099 | 121.05876 | 1632 ft | 99 kts | 28° |
| 2026-05-08 13:40 | 22.68732 | 121.06161 | 1442 ft | 98 kts | 26° |
| 2026-05-08 13:41 | 22.69351 | 121.06469 | 1276 ft | 97 kts | 30° |
| 2026-05-08 13:41 | 22.69943 | 121.06792 | 1188 ft | 93 kts | 34° |
| 2026-05-08 13:41 | 22.70512 | 121.07101 | 1163 ft | 90 kts | 30° |
| 2026-05-08 13:41 | 22.71133 | 121.07346 | 1011 ft | 97 kts | 29° |
| 2026-05-08 13:42 | 22.71731 | 121.07624 | 860 ft | 92 kts | 25° |
| 2026-05-08 13:42 | 22.72319 | 121.07913 | 720 ft | 94 kts | 28° |
| 2026-05-08 13:42 | 22.72899 | 121.08211 | 596 ft | 89 kts | 25° |
| 2026-05-08 13:42 | 22.73451 | 121.08467 | 625 ft | 85 kts | 26° |
| 2026-05-08 13:43 | 22.73995 | 121.08713 | 694 ft | 86 kts | 28° |
| 2026-05-08 13:43 | 22.74487 | 121.09063 | 755 ft | 87 kts | 54° |
| 2026-05-08 13:43 | 22.74707 | 121.09662 | 772 ft | 90 kts | 90° |
| 2026-05-08 13:43 | 22.74603 | 121.10323 | 913 ft | 87 kts | 108° |
| 2026-05-08 13:44 | 22.74442 | 121.10963 | 995 ft | 88 kts | 110° |
| 2026-05-08 13:44 | 22.74280 | 121.11588 | 1101 ft | 89 kts | 113° |
| 2026-05-08 13:44 | 22.74080 | 121.12216 | 1229 ft | 89 kts | 113° |
| 2026-05-08 13:44 | 22.73860 | 121.12874 | 1514 ft | 92 kts | 109° |
| 2026-05-08 13:45 | 22.73457 | 121.13418 | 1781 ft | 94 kts | 132° |
| 2026-05-08 13:45 | 22.72977 | 121.13899 | 2052 ft | 94 kts | 135° |
| 2026-05-08 13:45 | 22.72489 | 121.14381 | 2321 ft | 95 kts | 136° |
| 2026-05-08 13:45 | 22.71984 | 121.14854 | 2642 ft | 98 kts | 136° |
| 2026-05-08 13:46 | 22.71368 | 121.15254 | 2872 ft | 112 kts | 147° |
| 2026-05-08 13:46 | 22.70671 | 121.15727 | 3022 ft | 126 kts | 145° |
| 2026-05-08 13:46 | 22.69863 | 121.16274 | 3027 ft | 146 kts | 145° |
| 2026-05-08 13:46 | 22.68964 | 121.16882 | 3029 ft | 159 kts | 146° |
| 2026-05-08 13:47 | 22.68010 | 121.17534 | 3031 ft | 165 kts | 146° |
| 2026-05-08 13:47 | 22.67028 | 121.18212 | 3024 ft | 169 kts | 145° |
| 2026-05-08 13:47 | 22.66024 | 121.18898 | 3033 ft | 172 kts | 144° |
| 2026-05-08 13:47 | 22.64997 | 121.19573 | 3032 ft | 174 kts | 146° |
| 2026-05-08 13:48 | 22.63958 | 121.20229 | 3026 ft | 172 kts | 146° |
| 2026-05-08 13:48 | 22.62932 | 121.20883 | 3028 ft | 171 kts | 146° |
| 2026-05-08 13:48 | 22.61910 | 121.21540 | 3031 ft | 171 kts | 146° |
| 2026-05-08 13:48 | 22.60893 | 121.22202 | 3030 ft | 170 kts | 146° |
| 2026-05-08 13:49 | 22.59880 | 121.22859 | 3031 ft | 170 kts | 146° |
| 2026-05-08 13:49 | 22.58866 | 121.23507 | 3000 ft | 166 kts | 145° |
| 2026-05-08 13:49 | 22.57868 | 121.24117 | 3014 ft | 165 kts | 146° |
| 2026-05-08 13:49 | 22.56856 | 121.24706 | 2901 ft | 164 kts | 144° |
| 2026-05-08 13:50 | 22.55727 | 121.24948 | 2713 ft | 172 kts | 183° |
| 2026-05-08 13:50 | 22.54670 | 121.24395 | 2522 ft | 168 kts | 229° |
| 2026-05-08 13:50 | 22.54194 | 121.23346 | 2361 ft | 153 kts | 269° |
| 2026-05-08 13:50 | 22.54370 | 121.22268 | 2197 ft | 143 kts | 294° |
| 2026-05-08 13:51 | 22.54677 | 121.21262 | 2029 ft | 138 kts | 295° |
| 2026-05-08 13:51 | 22.54957 | 121.20322 | 2020 ft | 127 kts | 295° |
| 2026-05-08 13:51 | 22.55242 | 121.19384 | 2031 ft | 135 kts | 294° |
| 2026-05-08 13:51 | 22.55657 | 121.18467 | 2036 ft | 136 kts | 312° |
| 2026-05-08 13:52 | 22.56351 | 121.17804 | 2032 ft | 134 kts | 333° |
| 2026-05-08 13:52 | 22.57159 | 121.17302 | 2034 ft | 134 kts | 336° |
| 2026-05-08 13:52 | 22.57985 | 121.16818 | 2034 ft | 135 kts | 337° |
| 2026-05-08 13:52 | 22.58817 | 121.16337 | 2032 ft | 136 kts | 337° |
| 2026-05-08 13:53 | 22.59653 | 121.15856 | 2030 ft | 136 kts | 338° |
| 2026-05-08 13:53 | 22.60485 | 121.15374 | 2024 ft | 135 kts | 338° |
| 2026-05-08 13:53 | 22.61273 | 121.14921 | 2000 ft | 117 kts | 333° |
| 2026-05-08 13:53 | 22.61943 | 121.14531 | 2013 ft | 105 kts | 333° |
| 2026-05-08 13:54 | 22.62592 | 121.14157 | 1942 ft | 108 kts | 333° |
| 2026-05-08 13:54 | 22.63253 | 121.13785 | 1817 ft | 106 kts | 334° |
| 2026-05-08 13:54 | 22.63905 | 121.13420 | 1689 ft | 105 kts | 335° |
| 2026-05-08 13:54 | 22.64556 | 121.13050 | 1570 ft | 106 kts | 334° |
| 2026-05-08 13:55 | 22.65205 | 121.12682 | 1437 ft | 106 kts | 334° |
| 2026-05-08 13:55 | 22.65870 | 121.12306 | 1320 ft | 111 kts | 334° |
| 2026-05-08 13:55 | 22.67272 | 121.11510 | 1089 ft | 107 kts | 335° |
| 2026-05-08 13:56 | 22.67901 | 121.11148 | 959 ft | 98 kts | 334° |
| 2026-05-08 13:56 | 22.68504 | 121.10805 | 849 ft | 97 kts | 334° |
| 2026-05-08 13:56 | 22.69096 | 121.10470 | 741 ft | 95 kts | 335° |
| 2026-05-08 13:56 | 22.69682 | 121.10149 | 699 ft | 99 kts | 336° |
| 2026-05-08 13:57 | 22.70313 | 121.09819 | 699 ft | 103 kts | 335° |
| 2026-05-08 13:57 | 22.70955 | 121.09462 | 747 ft | 105 kts | 335° |
| 2026-05-08 13:57 | 22.71489 | 121.08930 | 752 ft | 99 kts | 314° |
| 2026-05-08 13:57 | 22.71905 | 121.08407 | 713 ft | 87 kts | 318° |
| 2026-05-08 13:58 | 22.72336 | 121.07957 | 692 ft | 85 kts | 334° |
| 2026-05-08 13:58 | 22.72908 | 121.07998 | 593 ft | 91 kts | 31° |
| 2026-05-08 13:58 | 22.73416 | 121.08380 | 449 ft | 87 kts | 37° |
| 2026-05-08 13:58 | 22.73896 | 121.08787 | 353 ft | 89 kts | 36° |
| 2026-05-08 13:59 | 22.74377 | 121.09204 | 273 ft | 88 kts | 39° |
| 2026-05-08 13:59 | 22.74809 | 121.09610 | 556 ft | 81 kts | 38° |
| 2026-05-08 13:59 | 22.75299 | 121.10041 | 708 ft | 97 kts | 38° |
| 2026-05-08 13:59 | 22.75822 | 121.10481 | 940 ft | 94 kts | 39° |
| 2026-05-08 14:00 | 22.76349 | 121.10928 | 1124 ft | 106 kts | 38° |
| 2026-05-08 14:00 | 22.77018 | 121.11343 | 1140 ft | 117 kts | 6° |
| 2026-05-08 14:00 | 22.77736 | 121.10971 | 1127 ft | 123 kts | 303° |
| 2026-05-08 14:00 | 22.77755 | 121.10095 | 1112 ft | 121 kts | 237° |
| 2026-05-08 14:01 | 22.77196 | 121.09436 | 1120 ft | 119 kts | 219° |
| 2026-05-08 14:01 | 22.76559 | 121.08836 | 1120 ft | 121 kts | 219° |
| 2026-05-08 14:01 | 22.75924 | 121.08239 | 1120 ft | 121 kts | 218° |
| 2026-05-08 14:01 | 22.75267 | 121.07701 | 1092 ft | 115 kts | 214° |
| 2026-05-08 14:02 | 22.74644 | 121.07223 | 1110 ft | 106 kts | 213° |
| 2026-05-08 14:02 | 22.74021 | 121.06793 | 1074 ft | 106 kts | 197° |
| 2026-05-08 14:02 | 22.73345 | 121.06953 | 923 ft | 104 kts | 135° |
| 2026-05-08 14:02 | 22.72864 | 121.07508 | 762 ft | 98 kts | 108° |
| 2026-05-08 14:03 | 22.72988 | 121.08182 | 598 ft | 98 kts | 39° |
| 2026-05-08 14:03 | 22.73568 | 121.08520 | 457 ft | 91 kts | 33° |
| 2026-05-08 14:03 | 22.74081 | 121.08953 | 327 ft | 97 kts | 33° |
| 2026-05-08 14:03 | 22.74592 | 121.09392 | 214 ft | 93 kts | 35° |
| 2026-05-08 14:04 | 22.75055 | 121.09788 | 145 ft | 69 kts | 37° |
| 2026-05-08 14:04 | 22.75445 | 121.10122 | 196 ft | 82 kts | 38° |
| 2026-05-08 14:04 | 22.75907 | 121.10517 | 439 ft | 88 kts | 35° |
| 2026-05-08 14:04 | 22.76382 | 121.10910 | 618 ft | 91 kts | 37° |
| 2026-05-08 14:05 | 22.76922 | 121.11280 | 816 ft | 93 kts | 11° |
| 2026-05-08 14:05 | 22.77522 | 121.11063 | 987 ft | 98 kts | 312° |
| 2026-05-08 14:05 | 22.77668 | 121.10347 | 1096 ft | 106 kts | 252° |
| 2026-05-08 14:05 | 22.77192 | 121.09710 | 1128 ft | 115 kts | 219° |
| 2026-05-08 14:06 | 22.76553 | 121.09125 | 1124 ft | 125 kts | 218° |
| 2026-05-08 14:06 | 22.75883 | 121.08519 | 1138 ft | 125 kts | 219° |
| 2026-05-08 14:06 | 22.75228 | 121.07917 | 1125 ft | 118 kts | 219° |
| 2026-05-08 14:06 | 22.74627 | 121.07378 | 1116 ft | 108 kts | 218° |
| 2026-05-08 14:07 | 22.74031 | 121.06916 | 1089 ft | 107 kts | 197° |
| 2026-05-08 14:07 | 22.73337 | 121.07048 | 1001 ft | 105 kts | 140° |
| 2026-05-08 14:07 | 22.72898 | 121.07643 | 941 ft | 94 kts | 108° |
| 2026-05-08 14:07 | 22.73034 | 121.08279 | 805 ft | 92 kts | 38° |
| 2026-05-08 14:08 | 22.73611 | 121.08555 | 730 ft | 89 kts | 36° |
| 2026-05-08 14:08 | 22.74080 | 121.08945 | 342 ft | 85 kts | 36° |
| 2026-05-08 14:08 | 22.74529 | 121.09335 | 163 ft | 84 kts | 36° |
| 2026-05-08 14:08 | 22.74871 | 121.09628 | 146 ft | 53 kts | 42° |
| 2026-05-08 14:09 | 22.75277 | 121.09980 | 224 ft | 86 kts | 38° |
| 2026-05-08 14:09 | 22.75743 | 121.10394 | 468 ft | 88 kts | 39° |
| 2026-05-08 14:09 | 22.76215 | 121.10821 | 627 ft | 88 kts | 40° |
| 2026-05-08 14:09 | 22.76726 | 121.11202 | 804 ft | 93 kts | 16° |
| 2026-05-08 14:10 | 22.77345 | 121.11028 | 952 ft | 99 kts | 314° |
| 2026-05-08 14:10 | 22.77512 | 121.10317 | 1092 ft | 104 kts | 252° |
| 2026-05-08 14:10 | 22.77039 | 121.09694 | 1117 ft | 115 kts | 218° |
| 2026-05-08 14:10 | 22.76394 | 121.09119 | 1124 ft | 125 kts | 217° |
| 2026-05-08 14:11 | 22.75728 | 121.08540 | 1131 ft | 117 kts | 218° |
| 2026-05-08 14:11 | 22.75108 | 121.07983 | 1113 ft | 114 kts | 218° |
| 2026-05-08 14:11 | 22.74515 | 121.07452 | 1116 ft | 110 kts | 218° |
| 2026-05-08 14:11 | 22.73906 | 121.06972 | 1075 ft | 108 kts | 197° |
| 2026-05-08 14:12 | 22.73205 | 121.07099 | 993 ft | 105 kts | 139° |
| 2026-05-08 14:12 | 22.72791 | 121.07682 | 947 ft | 93 kts | 104° |
| 2026-05-08 14:12 | 22.72990 | 121.08295 | 820 ft | 90 kts | 34° |
| 2026-05-08 14:12 | 22.73570 | 121.08552 | 734 ft | 91 kts | 31° |
| 2026-05-08 14:13 | 22.74076 | 121.08948 | 358 ft | 89 kts | 32° |
| 2026-05-08 14:13 | 22.74548 | 121.09352 | 162 ft | 84 kts | 36° |
| 2026-05-08 14:13 | 22.74890 | 121.09646 | 146 ft | 54 kts | 38° |
| 2026-05-08 14:13 | 22.75302 | 121.09993 | 242 ft | 85 kts | 33° |
| 2026-05-08 14:14 | 22.75780 | 121.10390 | 483 ft | 87 kts | 36° |
| 2026-05-08 14:14 | 22.76274 | 121.10802 | 595 ft | 95 kts | 38° |
| 2026-05-08 14:14 | 22.76801 | 121.11242 | 792 ft | 93 kts | 37° |
| 2026-05-08 14:14 | 22.77422 | 121.11321 | 922 ft | 97 kts | 335° |
| 2026-05-08 14:15 | 22.77836 | 121.10763 | 1131 ft | 107 kts | 284° |
| 2026-05-08 14:15 | 22.77655 | 121.09921 | 1148 ft | 128 kts | 230° |
| 2026-05-08 14:15 | 22.76970 | 121.09281 | 1122 ft | 130 kts | 218° |
| 2026-05-08 14:15 | 22.76260 | 121.08686 | 1127 ft | 125 kts | 216° |
| 2026-05-08 14:16 | 22.75588 | 121.08125 | 1120 ft | 119 kts | 217° |
| 2026-05-08 14:16 | 22.74959 | 121.07602 | 1120 ft | 108 kts | 217° |
| 2026-05-08 14:16 | 22.74363 | 121.07115 | 1124 ft | 107 kts | 216° |
| 2026-05-08 14:16 | 22.73689 | 121.06864 | 1020 ft | 106 kts | 168° |
| 2026-05-08 14:17 | 22.73113 | 121.07312 | 894 ft | 103 kts | 127° |
| 2026-05-08 14:17 | 22.72946 | 121.07981 | 749 ft | 94 kts | 68° |
| 2026-05-08 14:17 | 22.73415 | 121.08410 | 576 ft | 88 kts | 24° |
| 2026-05-08 14:17 | 22.73902 | 121.08799 | 385 ft | 89 kts | 34° |
| 2026-05-08 14:18 | 22.74375 | 121.09205 | 271 ft | 85 kts | 34° |
| 2026-05-08 14:18 | 22.74841 | 121.09603 | 157 ft | 80 kts | 37° |
| 2026-05-08 14:18 | 22.75166 | 121.09885 | 142 ft | 44 kts | 38° |
| 2026-05-08 14:18 | 22.75358 | 121.10050 | 141 ft | 28 kts | 38° |
| 2026-05-08 14:19 | 22.75481 | 121.10154 | 141 ft | 18 kts | 39° |
| 2026-05-08 14:19 | 22.75598 | 121.10258 | 142 ft | 25 kts | 37° |
| 2026-05-08 14:19 | 22.75739 | 121.10378 | 141 ft | 16 kts | 38° |
| 2026-05-08 14:19 | 22.75815 | 121.10394 | 140 ft | 11 kts | 313° |
| 2026-05-08 14:20 | 22.75866 | 121.10344 | 138 ft | 9 kts | 357° |
| 2026-05-08 14:20 | 22.75912 | 121.10368 | 138 ft | 11 kts | 13° |
| 2026-05-08 14:20 | 22.75938 | 121.10342 | 141 ft | 5 kts | 202° |
| 2026-05-08 14:20 | 22.75940 | 121.10328 | 141 ft | 1 kts | 40° |